sensor_id;sensor_type;location;lat;lon;timestamp;P1;durP1;ratioP1;P2;durP2;ratioP2
9310;SDS011;4694;52.464;13.480;2024-03-08T00:01:24;35.95;;;18.75;;
9310;SDS011;4694;52.464;13.480;2024-03-08T00:03:51;41.80;;;21.27;;
9310;SDS011;4694;52.464;13.480;2024-03-08T00:06:17;39.50;;;20.38;;
9310;SDS011;4694;52.464;13.480;2024-03-08T00:08:44;39.20;;;21.65;;
9310;SDS011;4694;52.464;13.480;2024-03-08T00:11:11;45.35;;;21.38;;
9310;SDS011;4694;52.464;13.480;2024-03-08T00:13:39;41.28;;;21.63;;
9310;SDS011;4694;52.464;13.480;2024-03-08T00:16:05;44.75;;;23.67;;
9310;SDS011;4694;52.464;13.480;2024-03-08T00:18:34;36.75;;;19.65;;
9310;SDS011;4694;52.464;13.480;2024-03-08T00:21:01;44.97;;;21.40;;
9310;SDS011;4694;52.464;13.480;2024-03-08T00:23:27;38.75;;;20.55;;
9310;SDS011;4694;52.464;13.480;2024-03-08T00:25:54;40.13;;;20.65;;
9310;SDS011;4694;52.464;13.480;2024-03-08T00:28:20;41.08;;;24.55;;
9310;SDS011;4694;52.464;13.480;2024-03-08T00:30:51;41.85;;;21.20;;
9310;SDS011;4694;52.464;13.480;2024-03-08T00:33:17;48.67;;;23.05;;
9310;SDS011;4694;52.464;13.480;2024-03-08T00:35:44;38.78;;;21.40;;
9310;SDS011;4694;52.464;13.480;2024-03-08T00:38:11;45.95;;;20.48;;
9310;SDS011;4694;52.464;13.480;2024-03-08T00:40:38;41.85;;;20.27;;
9310;SDS011;4694;52.464;13.480;2024-03-08T00:43:05;40.08;;;19.65;;
9310;SDS011;4694;52.464;13.480;2024-03-08T00:45:32;39.72;;;20.98;;
9310;SDS011;4694;52.464;13.480;2024-03-08T00:48:00;43.35;;;21.30;;
9310;SDS011;4694;52.464;13.480;2024-03-08T00:50:27;41.33;;;22.20;;
9310;SDS011;4694;52.464;13.480;2024-03-08T00:52:53;40.55;;;21.58;;
9310;SDS011;4694;52.464;13.480;2024-03-08T00:55:21;45.15;;;21.98;;
9310;SDS011;4694;52.464;13.480;2024-03-08T00:57:47;41.03;;;20.55;;
9310;SDS011;4694;52.464;13.480;2024-03-08T01:00:15;35.15;;;18.98;;
9310;SDS011;4694;52.464;13.480;2024-03-08T01:02:42;48.63;;;21.33;;
9310;SDS011;4694;52.464;13.480;2024-03-08T01:05:11;41.95;;;22.02;;
9310;SDS011;4694;52.464;13.480;2024-03-08T01:07:37;44.38;;;21.23;;
9310;SDS011;4694;52.464;13.480;2024-03-08T01:10:04;43.53;;;21.45;;
9310;SDS011;4694;52.464;13.480;2024-03-08T01:12:34;44.03;;;20.95;;
9310;SDS011;4694;52.464;13.480;2024-03-08T01:15:01;39.97;;;20.58;;
9310;SDS011;4694;52.464;13.480;2024-03-08T01:17:28;45.20;;;20.27;;
9310;SDS011;4694;52.464;13.480;2024-03-08T01:19:54;44.33;;;21.13;;
9310;SDS011;4694;52.464;13.480;2024-03-08T01:22:22;38.50;;;20.17;;
9310;SDS011;4694;52.464;13.480;2024-03-08T01:24:49;39.80;;;21.00;;
9310;SDS011;4694;52.464;13.480;2024-03-08T01:27:16;39.72;;;18.90;;
9310;SDS011;4694;52.464;13.480;2024-03-08T01:29:42;41.17;;;20.02;;
9310;SDS011;4694;52.464;13.480;2024-03-08T01:32:09;41.17;;;19.42;;
9310;SDS011;4694;52.464;13.480;2024-03-08T01:34:37;42.75;;;19.92;;
9310;SDS011;4694;52.464;13.480;2024-03-08T01:37:03;42.90;;;20.38;;
9310;SDS011;4694;52.464;13.480;2024-03-08T01:39:32;38.22;;;20.40;;
9310;SDS011;4694;52.464;13.480;2024-03-08T01:41:59;39.78;;;20.08;;
9310;SDS011;4694;52.464;13.480;2024-03-08T01:44:26;44.67;;;20.38;;
9310;SDS011;4694;52.464;13.480;2024-03-08T01:46:53;44.63;;;19.90;;
9310;SDS011;4694;52.464;13.480;2024-03-08T01:49:21;41.00;;;19.77;;
9310;SDS011;4694;52.464;13.480;2024-03-08T01:51:48;44.83;;;21.70;;
9310;SDS011;4694;52.464;13.480;2024-03-08T01:54:16;43.65;;;19.45;;
9310;SDS011;4694;52.464;13.480;2024-03-08T01:56:46;48.60;;;21.48;;
9310;SDS011;4694;52.464;13.480;2024-03-08T01:59:14;35.90;;;16.85;;
9310;SDS011;4694;52.464;13.480;2024-03-08T02:01:41;41.03;;;19.95;;
9310;SDS011;4694;52.464;13.480;2024-03-08T02:04:08;52.70;;;23.33;;
9310;SDS011;4694;52.464;13.480;2024-03-08T02:06:36;37.33;;;20.30;;
9310;SDS011;4694;52.464;13.480;2024-03-08T02:09:03;44.80;;;21.67;;
9310;SDS011;4694;52.464;13.480;2024-03-08T02:11:32;43.05;;;20.17;;
9310;SDS011;4694;52.464;13.480;2024-03-08T02:14:00;51.63;;;21.45;;
9310;SDS011;4694;52.464;13.480;2024-03-08T02:16:27;42.92;;;21.15;;
9310;SDS011;4694;52.464;13.480;2024-03-08T02:18:54;42.10;;;21.73;;
9310;SDS011;4694;52.464;13.480;2024-03-08T02:21:22;39.13;;;21.85;;
9310;SDS011;4694;52.464;13.480;2024-03-08T02:23:49;42.22;;;21.20;;
9310;SDS011;4694;52.464;13.480;2024-03-08T02:26:17;42.70;;;19.95;;
9310;SDS011;4694;52.464;13.480;2024-03-08T02:28:44;46.85;;;20.90;;
9310;SDS011;4694;52.464;13.480;2024-03-08T02:31:11;47.67;;;21.60;;
9310;SDS011;4694;52.464;13.480;2024-03-08T02:33:37;44.10;;;20.58;;
9310;SDS011;4694;52.464;13.480;2024-03-08T02:36:04;43.85;;;22.88;;
9310;SDS011;4694;52.464;13.480;2024-03-08T02:38:33;49.17;;;20.63;;
9310;SDS011;4694;52.464;13.480;2024-03-08T02:41:00;46.33;;;20.55;;
9310;SDS011;4694;52.464;13.480;2024-03-08T02:43:28;47.83;;;23.15;;
9310;SDS011;4694;52.464;13.480;2024-03-08T02:45:55;48.78;;;23.73;;
9310;SDS011;4694;52.464;13.480;2024-03-08T02:48:21;41.72;;;20.27;;
9310;SDS011;4694;52.464;13.480;2024-03-08T02:50:47;44.05;;;22.75;;
9310;SDS011;4694;52.464;13.480;2024-03-08T02:53:16;43.67;;;23.38;;
9310;SDS011;4694;52.464;13.480;2024-03-08T02:55:45;46.08;;;21.63;;
9310;SDS011;4694;52.464;13.480;2024-03-08T02:58:11;51.15;;;20.90;;
9310;SDS011;4694;52.464;13.480;2024-03-08T03:00:39;43.92;;;21.88;;
9310;SDS011;4694;52.464;13.480;2024-03-08T03:03:06;40.92;;;21.55;;
9310;SDS011;4694;52.464;13.480;2024-03-08T03:05:33;42.85;;;20.10;;
9310;SDS011;4694;52.464;13.480;2024-03-08T03:08:00;47.80;;;20.42;;
9310;SDS011;4694;52.464;13.480;2024-03-08T03:10:28;45.83;;;21.40;;
9310;SDS011;4694;52.464;13.480;2024-03-08T03:12:57;49.00;;;21.00;;
9310;SDS011;4694;52.464;13.480;2024-03-08T03:15:24;46.15;;;22.23;;
9310;SDS011;4694;52.464;13.480;2024-03-08T03:17:50;47.17;;;21.10;;
9310;SDS011;4694;52.464;13.480;2024-03-08T03:20:17;53.78;;;22.80;;
9310;SDS011;4694;52.464;13.480;2024-03-08T03:22:51;54.45;;;22.65;;
9310;SDS011;4694;52.464;13.480;2024-03-08T03:25:18;46.60;;;24.20;;
9310;SDS011;4694;52.464;13.480;2024-03-08T03:27:51;47.00;;;21.75;;
9310;SDS011;4694;52.464;13.480;2024-03-08T03:30:19;51.55;;;22.02;;
9310;SDS011;4694;52.464;13.480;2024-03-08T03:32:46;46.08;;;21.35;;
9310;SDS011;4694;52.464;13.480;2024-03-08T03:35:14;51.65;;;23.50;;
9310;SDS011;4694;52.464;13.480;2024-03-08T03:37:41;53.30;;;22.63;;
9310;SDS011;4694;52.464;13.480;2024-03-08T03:40:10;52.88;;;22.95;;
9310;SDS011;4694;52.464;13.480;2024-03-08T03:42:38;57.10;;;23.38;;
9310;SDS011;4694;52.464;13.480;2024-03-08T03:45:05;57.35;;;24.90;;
9310;SDS011;4694;52.464;13.480;2024-03-08T03:47:33;48.95;;;24.13;;
9310;SDS011;4694;52.464;13.480;2024-03-08T03:50:00;50.25;;;24.95;;
9310;SDS011;4694;52.464;13.480;2024-03-08T03:52:28;58.85;;;26.23;;
9310;SDS011;4694;52.464;13.480;2024-03-08T03:54:54;44.47;;;20.20;;
9310;SDS011;4694;52.464;13.480;2024-03-08T03:57:21;58.55;;;24.27;;
9310;SDS011;4694;52.464;13.480;2024-03-08T03:59:49;50.75;;;24.90;;
9310;SDS011;4694;52.464;13.480;2024-03-08T04:02:16;56.85;;;27.05;;
9310;SDS011;4694;52.464;13.480;2024-03-08T04:04:44;51.90;;;22.50;;
9310;SDS011;4694;52.464;13.480;2024-03-08T04:07:11;46.47;;;22.73;;
9310;SDS011;4694;52.464;13.480;2024-03-08T04:09:38;48.90;;;20.67;;
9310;SDS011;4694;52.464;13.480;2024-03-08T04:12:04;47.42;;;23.58;;
9310;SDS011;4694;52.464;13.480;2024-03-08T04:14:32;52.63;;;22.63;;
9310;SDS011;4694;52.464;13.480;2024-03-08T04:16:59;55.13;;;23.30;;
9310;SDS011;4694;52.464;13.480;2024-03-08T04:19:26;51.55;;;23.75;;
9310;SDS011;4694;52.464;13.480;2024-03-08T04:21:54;59.78;;;25.63;;
9310;SDS011;4694;52.464;13.480;2024-03-08T04:24:21;51.28;;;24.70;;
9310;SDS011;4694;52.464;13.480;2024-03-08T04:26:47;51.70;;;24.20;;
9310;SDS011;4694;52.464;13.480;2024-03-08T04:29:14;58.40;;;26.30;;
9310;SDS011;4694;52.464;13.480;2024-03-08T04:31:42;55.38;;;25.50;;
9310;SDS011;4694;52.464;13.480;2024-03-08T04:34:09;56.33;;;27.13;;
9310;SDS011;4694;52.464;13.480;2024-03-08T04:36:36;54.67;;;26.88;;
9310;SDS011;4694;52.464;13.480;2024-03-08T04:39:04;57.90;;;26.15;;
9310;SDS011;4694;52.464;13.480;2024-03-08T04:41:31;56.08;;;27.35;;
9310;SDS011;4694;52.464;13.480;2024-03-08T04:43:59;52.88;;;25.65;;
9310;SDS011;4694;52.464;13.480;2024-03-08T04:46:25;64.88;;;27.95;;
9310;SDS011;4694;52.464;13.480;2024-03-08T04:48:53;62.47;;;27.45;;
9310;SDS011;4694;52.464;13.480;2024-03-08T04:51:20;55.13;;;27.42;;
9310;SDS011;4694;52.464;13.480;2024-03-08T04:53:47;53.38;;;26.08;;
9310;SDS011;4694;52.464;13.480;2024-03-08T04:56:15;60.65;;;29.50;;
9310;SDS011;4694;52.464;13.480;2024-03-08T04:58:41;65.95;;;29.08;;
9310;SDS011;4694;52.464;13.480;2024-03-08T05:01:08;55.88;;;26.17;;
9310;SDS011;4694;52.464;13.480;2024-03-08T05:03:35;60.03;;;25.67;;
9310;SDS011;4694;52.464;13.480;2024-03-08T05:06:03;51.33;;;26.08;;
9310;SDS011;4694;52.464;13.480;2024-03-08T05:08:30;56.88;;;28.35;;
9310;SDS011;4694;52.464;13.480;2024-03-08T05:10:58;60.13;;;27.55;;
9310;SDS011;4694;52.464;13.480;2024-03-08T05:13:29;61.75;;;26.65;;
9310;SDS011;4694;52.464;13.480;2024-03-08T05:15:56;68.43;;;28.30;;
9310;SDS011;4694;52.464;13.480;2024-03-08T05:18:23;66.00;;;27.42;;
9310;SDS011;4694;52.464;13.480;2024-03-08T05:20:50;58.17;;;28.27;;
9310;SDS011;4694;52.464;13.480;2024-03-08T05:23:17;66.63;;;28.65;;
9310;SDS011;4694;52.464;13.480;2024-03-08T05:25:44;62.83;;;28.48;;
9310;SDS011;4694;52.464;13.480;2024-03-08T05:28:12;64.03;;;29.60;;
9310;SDS011;4694;52.464;13.480;2024-03-08T05:30:40;58.75;;;28.52;;
9310;SDS011;4694;52.464;13.480;2024-03-08T05:33:06;60.35;;;26.25;;
9310;SDS011;4694;52.464;13.480;2024-03-08T05:35:35;59.85;;;28.80;;
9310;SDS011;4694;52.464;13.480;2024-03-08T05:38:02;54.85;;;28.02;;
9310;SDS011;4694;52.464;13.480;2024-03-08T05:40:28;70.30;;;30.10;;
9310;SDS011;4694;52.464;13.480;2024-03-08T05:42:57;66.50;;;29.80;;
9310;SDS011;4694;52.464;13.480;2024-03-08T05:45:23;67.50;;;32.38;;
9310;SDS011;4694;52.464;13.480;2024-03-08T05:47:52;60.00;;;26.92;;
9310;SDS011;4694;52.464;13.480;2024-03-08T05:50:18;58.10;;;29.30;;
9310;SDS011;4694;52.464;13.480;2024-03-08T05:52:45;72.03;;;32.20;;
9310;SDS011;4694;52.464;13.480;2024-03-08T05:55:13;62.05;;;27.80;;
9310;SDS011;4694;52.464;13.480;2024-03-08T05:57:40;72.85;;;31.05;;
9310;SDS011;4694;52.464;13.480;2024-03-08T06:00:07;65.85;;;32.05;;
9310;SDS011;4694;52.464;13.480;2024-03-08T06:02:36;64.55;;;28.80;;
9310;SDS011;4694;52.464;13.480;2024-03-08T06:05:07;66.28;;;29.17;;
9310;SDS011;4694;52.464;13.480;2024-03-08T06:07:34;77.07;;;34.08;;
9310;SDS011;4694;52.464;13.480;2024-03-08T06:10:01;67.45;;;31.92;;
9310;SDS011;4694;52.464;13.480;2024-03-08T06:12:28;65.53;;;31.08;;
9310;SDS011;4694;52.464;13.480;2024-03-08T06:14:58;64.95;;;33.50;;
9310;SDS011;4694;52.464;13.480;2024-03-08T06:17:25;58.15;;;30.52;;
9310;SDS011;4694;52.464;13.480;2024-03-08T06:19:51;63.40;;;30.85;;
9310;SDS011;4694;52.464;13.480;2024-03-08T06:22:20;63.78;;;29.33;;
9310;SDS011;4694;52.464;13.480;2024-03-08T06:24:47;60.55;;;29.13;;
9310;SDS011;4694;52.464;13.480;2024-03-08T06:27:13;65.63;;;28.25;;
9310;SDS011;4694;52.464;13.480;2024-03-08T06:29:40;63.78;;;29.88;;
9310;SDS011;4694;52.464;13.480;2024-03-08T06:32:07;67.88;;;30.95;;
9310;SDS011;4694;52.464;13.480;2024-03-08T06:34:34;62.67;;;26.95;;
9310;SDS011;4694;52.464;13.480;2024-03-08T06:37:00;57.92;;;28.05;;
9310;SDS011;4694;52.464;13.480;2024-03-08T06:39:28;59.05;;;27.95;;
9310;SDS011;4694;52.464;13.480;2024-03-08T06:41:56;61.60;;;29.10;;
9310;SDS011;4694;52.464;13.480;2024-03-08T06:44:23;58.45;;;27.33;;
9310;SDS011;4694;52.464;13.480;2024-03-08T06:46:50;63.53;;;28.35;;
9310;SDS011;4694;52.464;13.480;2024-03-08T06:49:17;59.95;;;28.63;;
9310;SDS011;4694;52.464;13.480;2024-03-08T06:51:44;56.83;;;28.00;;
9310;SDS011;4694;52.464;13.480;2024-03-08T06:54:11;55.88;;;26.85;;
9310;SDS011;4694;52.464;13.480;2024-03-08T06:56:40;59.97;;;27.13;;
9310;SDS011;4694;52.464;13.480;2024-03-08T07:01:35;54.38;;;27.17;;
9310;SDS011;4694;52.464;13.480;2024-03-08T07:04:03;51.45;;;26.13;;
9310;SDS011;4694;52.464;13.480;2024-03-08T07:06:31;56.67;;;29.17;;
9310;SDS011;4694;52.464;13.480;2024-03-08T07:08:59;51.40;;;23.17;;
9310;SDS011;4694;52.464;13.480;2024-03-08T07:11:26;53.50;;;25.63;;
9310;SDS011;4694;52.464;13.480;2024-03-08T07:13:54;57.30;;;26.73;;
9310;SDS011;4694;52.464;13.480;2024-03-08T07:16:20;55.88;;;25.50;;
9310;SDS011;4694;52.464;13.480;2024-03-08T07:18:47;52.78;;;25.92;;
9310;SDS011;4694;52.464;13.480;2024-03-08T07:21:17;49.90;;;25.55;;
9310;SDS011;4694;52.464;13.480;2024-03-08T07:23:44;51.63;;;25.38;;
9310;SDS011;4694;52.464;13.480;2024-03-08T07:26:39;45.40;;;24.70;;
9310;SDS011;4694;52.464;13.480;2024-03-08T07:29:07;62.90;;;27.92;;
9310;SDS011;4694;52.464;13.480;2024-03-08T07:31:34;51.28;;;26.00;;
9310;SDS011;4694;52.464;13.480;2024-03-08T07:34:15;49.55;;;23.77;;
9310;SDS011;4694;52.464;13.480;2024-03-08T07:36:43;60.92;;;28.25;;
9310;SDS011;4694;52.464;13.480;2024-03-08T07:39:09;44.33;;;22.73;;
9310;SDS011;4694;52.464;13.480;2024-03-08T07:41:37;58.08;;;25.98;;
9310;SDS011;4694;52.464;13.480;2024-03-08T07:44:05;50.78;;;24.38;;
9310;SDS011;4694;52.464;13.480;2024-03-08T07:46:33;42.38;;;24.08;;
9310;SDS011;4694;52.464;13.480;2024-03-08T07:49:00;48.53;;;24.02;;
9310;SDS011;4694;52.464;13.480;2024-03-08T07:51:26;47.40;;;23.98;;
9310;SDS011;4694;52.464;13.480;2024-03-08T07:53:53;38.92;;;22.35;;
9310;SDS011;4694;52.464;13.480;2024-03-08T07:56:20;45.95;;;26.05;;
9310;SDS011;4694;52.464;13.480;2024-03-08T07:58:48;50.60;;;26.67;;
9310;SDS011;4694;52.464;13.480;2024-03-08T08:01:16;38.40;;;21.13;;
9310;SDS011;4694;52.464;13.480;2024-03-08T08:03:44;44.13;;;22.58;;
9310;SDS011;4694;52.464;13.480;2024-03-08T08:06:10;44.05;;;23.50;;
9310;SDS011;4694;52.464;13.480;2024-03-08T08:08:40;42.25;;;23.27;;
9310;SDS011;4694;52.464;13.480;2024-03-08T08:11:07;43.80;;;23.63;;
9310;SDS011;4694;52.464;13.480;2024-03-08T08:13:36;40.38;;;21.83;;
9310;SDS011;4694;52.464;13.480;2024-03-08T08:16:04;38.55;;;22.88;;
9310;SDS011;4694;52.464;13.480;2024-03-08T08:18:31;38.67;;;20.60;;
9310;SDS011;4694;52.464;13.480;2024-03-08T08:21:01;38.47;;;22.48;;
9310;SDS011;4694;52.464;13.480;2024-03-08T08:23:28;35.83;;;21.48;;
9310;SDS011;4694;52.464;13.480;2024-03-08T08:25:55;38.08;;;20.95;;
9310;SDS011;4694;52.464;13.480;2024-03-08T08:28:22;38.83;;;20.90;;
9310;SDS011;4694;52.464;13.480;2024-03-08T08:30:50;36.97;;;20.77;;
9310;SDS011;4694;52.464;13.480;2024-03-08T08:33:17;35.40;;;21.17;;
9310;SDS011;4694;52.464;13.480;2024-03-08T08:35:44;35.80;;;22.42;;
9310;SDS011;4694;52.464;13.480;2024-03-08T08:38:14;40.83;;;22.70;;
9310;SDS011;4694;52.464;13.480;2024-03-08T08:40:40;36.15;;;22.02;;
9310;SDS011;4694;52.464;13.480;2024-03-08T08:43:08;36.83;;;20.77;;
9310;SDS011;4694;52.464;13.480;2024-03-08T08:45:35;37.88;;;20.92;;
9310;SDS011;4694;52.464;13.480;2024-03-08T08:48:04;42.60;;;21.98;;
9310;SDS011;4694;52.464;13.480;2024-03-08T08:50:31;41.00;;;22.45;;
9310;SDS011;4694;52.464;13.480;2024-03-08T08:52:58;34.05;;;19.83;;
9310;SDS011;4694;52.464;13.480;2024-03-08T08:55:26;33.17;;;19.50;;
9310;SDS011;4694;52.464;13.480;2024-03-08T08:57:53;34.90;;;20.30;;
9310;SDS011;4694;52.464;13.480;2024-03-08T09:00:21;36.53;;;20.63;;
9310;SDS011;4694;52.464;13.480;2024-03-08T09:02:52;40.58;;;20.52;;
9310;SDS011;4694;52.464;13.480;2024-03-08T09:05:20;40.58;;;20.13;;
9310;SDS011;4694;52.464;13.480;2024-03-08T09:07:49;42.15;;;21.67;;
9310;SDS011;4694;52.464;13.480;2024-03-08T09:10:16;36.78;;;20.30;;
9310;SDS011;4694;52.464;13.480;2024-03-08T09:12:45;36.58;;;20.35;;
9310;SDS011;4694;52.464;13.480;2024-03-08T09:15:12;35.47;;;18.98;;
9310;SDS011;4694;52.464;13.480;2024-03-08T09:17:39;30.52;;;17.35;;
9310;SDS011;4694;52.464;13.480;2024-03-08T09:20:06;33.75;;;18.45;;
9310;SDS011;4694;52.464;13.480;2024-03-08T09:22:33;34.75;;;19.40;;
9310;SDS011;4694;52.464;13.480;2024-03-08T09:24:59;34.05;;;18.63;;
9310;SDS011;4694;52.464;13.480;2024-03-08T09:27:26;34.53;;;20.02;;
9310;SDS011;4694;52.464;13.480;2024-03-08T09:29:54;38.22;;;20.35;;
9310;SDS011;4694;52.464;13.480;2024-03-08T09:32:21;34.17;;;18.23;;
9310;SDS011;4694;52.464;13.480;2024-03-08T09:34:48;36.72;;;20.40;;
9310;SDS011;4694;52.464;13.480;2024-03-08T09:37:15;33.13;;;20.08;;
9310;SDS011;4694;52.464;13.480;2024-03-08T09:39:42;29.30;;;18.52;;
9310;SDS011;4694;52.464;13.480;2024-03-08T09:42:09;31.67;;;18.90;;
9310;SDS011;4694;52.464;13.480;2024-03-08T09:44:39;33.67;;;16.90;;
9310;SDS011;4694;52.464;13.480;2024-03-08T09:47:11;30.73;;;17.92;;
9310;SDS011;4694;52.464;13.480;2024-03-08T09:49:39;29.77;;;17.02;;
9310;SDS011;4694;52.464;13.480;2024-03-08T09:52:06;28.95;;;16.80;;
9310;SDS011;4694;52.464;13.480;2024-03-08T09:54:33;32.85;;;18.52;;
9310;SDS011;4694;52.464;13.480;2024-03-08T09:57:00;28.88;;;17.27;;
9310;SDS011;4694;52.464;13.480;2024-03-08T09:59:29;28.73;;;16.42;;
9310;SDS011;4694;52.464;13.480;2024-03-08T10:02:15;28.25;;;17.05;;
9310;SDS011;4694;52.464;13.480;2024-03-08T10:04:42;30.20;;;16.73;;
9310;SDS011;4694;52.464;13.480;2024-03-08T10:07:11;28.92;;;16.08;;
9310;SDS011;4694;52.464;13.480;2024-03-08T10:09:38;27.02;;;15.93;;
9310;SDS011;4694;52.464;13.480;2024-03-08T10:12:05;22.08;;;15.13;;
9310;SDS011;4694;52.464;13.480;2024-03-08T10:14:33;24.45;;;15.85;;
9310;SDS011;4694;52.464;13.480;2024-03-08T10:16:59;23.77;;;14.30;;
9310;SDS011;4694;52.464;13.480;2024-03-08T10:19:27;22.60;;;14.43;;
9310;SDS011;4694;52.464;13.480;2024-03-08T10:21:54;21.40;;;13.73;;
9310;SDS011;4694;52.464;13.480;2024-03-08T10:24:23;21.58;;;15.38;;
9310;SDS011;4694;52.464;13.480;2024-03-08T10:26:51;20.65;;;14.60;;
9310;SDS011;4694;52.464;13.480;2024-03-08T10:29:18;21.50;;;15.60;;
9310;SDS011;4694;52.464;13.480;2024-03-08T10:31:45;26.15;;;15.63;;
9310;SDS011;4694;52.464;13.480;2024-03-08T10:34:12;22.92;;;15.75;;
9310;SDS011;4694;52.464;13.480;2024-03-08T10:36:41;23.02;;;15.25;;
9310;SDS011;4694;52.464;13.480;2024-03-08T10:39:10;20.65;;;15.15;;
9310;SDS011;4694;52.464;13.480;2024-03-08T10:41:44;19.02;;;15.05;;
9310;SDS011;4694;52.464;13.480;2024-03-08T10:44:17;23.40;;;16.35;;
9310;SDS011;4694;52.464;13.480;2024-03-08T10:47:00;20.38;;;13.95;;
9310;SDS011;4694;52.464;13.480;2024-03-08T10:49:30;23.15;;;14.85;;
9310;SDS011;4694;52.464;13.480;2024-03-08T10:52:03;21.20;;;14.23;;
9310;SDS011;4694;52.464;13.480;2024-03-08T10:54:33;19.63;;;14.80;;
9310;SDS011;4694;52.464;13.480;2024-03-08T10:57:01;22.17;;;13.95;;
9310;SDS011;4694;52.464;13.480;2024-03-08T10:59:33;24.45;;;15.10;;
9310;SDS011;4694;52.464;13.480;2024-03-08T11:02:02;25.23;;;16.25;;
9310;SDS011;4694;52.464;13.480;2024-03-08T11:04:30;22.73;;;15.25;;
9310;SDS011;4694;52.464;13.480;2024-03-08T11:07:00;20.40;;;14.55;;
9310;SDS011;4694;52.464;13.480;2024-03-08T11:09:34;16.77;;;14.43;;
9310;SDS011;4694;52.464;13.480;2024-03-08T11:14:55;19.00;;;15.13;;
9310;SDS011;4694;52.464;13.480;2024-03-08T11:17:26;18.55;;;14.48;;
9310;SDS011;4694;52.464;13.480;2024-03-08T11:20:08;20.65;;;15.20;;
9310;SDS011;4694;52.464;13.480;2024-03-08T11:22:40;18.77;;;14.82;;
9310;SDS011;4694;52.464;13.480;2024-03-08T11:25:30;19.52;;;13.90;;
9310;SDS011;4694;52.464;13.480;2024-03-08T11:28:07;18.92;;;15.15;;
9310;SDS011;4694;52.464;13.480;2024-03-08T11:30:41;17.27;;;13.90;;
9310;SDS011;4694;52.464;13.480;2024-03-08T11:33:13;22.52;;;16.42;;
9310;SDS011;4694;52.464;13.480;2024-03-08T11:35:41;18.13;;;15.32;;
9310;SDS011;4694;52.464;13.480;2024-03-08T11:38:11;19.73;;;15.90;;
9310;SDS011;4694;52.464;13.480;2024-03-08T11:40:40;19.23;;;15.48;;
9310;SDS011;4694;52.464;13.480;2024-03-08T11:43:07;18.90;;;14.35;;
9310;SDS011;4694;52.464;13.480;2024-03-08T11:45:35;19.23;;;13.93;;
9310;SDS011;4694;52.464;13.480;2024-03-08T11:48:02;17.67;;;14.23;;
9310;SDS011;4694;52.464;13.480;2024-03-08T11:50:29;14.43;;;11.73;;
9310;SDS011;4694;52.464;13.480;2024-03-08T11:53:00;16.33;;;12.50;;
9310;SDS011;4694;52.464;13.480;2024-03-08T11:55:28;18.77;;;13.13;;
9310;SDS011;4694;52.464;13.480;2024-03-08T11:58:00;16.60;;;13.07;;
9310;SDS011;4694;52.464;13.480;2024-03-08T12:00:28;15.95;;;12.43;;
9310;SDS011;4694;52.464;13.480;2024-03-08T12:03:03;18.48;;;12.15;;
9310;SDS011;4694;52.464;13.480;2024-03-08T12:05:32;14.27;;;11.20;;
9310;SDS011;4694;52.464;13.480;2024-03-08T12:08:01;14.98;;;11.10;;
9310;SDS011;4694;52.464;13.480;2024-03-08T12:10:30;17.20;;;12.50;;
9310;SDS011;4694;52.464;13.480;2024-03-08T12:12:57;15.00;;;12.38;;
9310;SDS011;4694;52.464;13.480;2024-03-08T12:15:27;15.88;;;12.23;;
9310;SDS011;4694;52.464;13.480;2024-03-08T12:17:57;23.90;;;15.80;;
9310;SDS011;4694;52.464;13.480;2024-03-08T12:20:26;19.95;;;16.50;;
9310;SDS011;4694;52.464;13.480;2024-03-08T12:22:54;19.47;;;14.97;;
9310;SDS011;4694;52.464;13.480;2024-03-08T12:25:22;15.73;;;13.27;;
9310;SDS011;4694;52.464;13.480;2024-03-08T12:27:52;17.35;;;13.05;;
9310;SDS011;4694;52.464;13.480;2024-03-08T12:30:21;14.60;;;11.45;;
9310;SDS011;4694;52.464;13.480;2024-03-08T12:32:53;16.75;;;12.77;;
9310;SDS011;4694;52.464;13.480;2024-03-08T12:35:23;17.30;;;13.65;;
9310;SDS011;4694;52.464;13.480;2024-03-08T12:37:51;19.13;;;13.93;;
9310;SDS011;4694;52.464;13.480;2024-03-08T12:40:19;19.73;;;15.25;;
9310;SDS011;4694;52.464;13.480;2024-03-08T12:42:52;19.05;;;14.25;;
9310;SDS011;4694;52.464;13.480;2024-03-08T12:45:20;17.63;;;14.00;;
9310;SDS011;4694;52.464;13.480;2024-03-08T12:47:48;20.85;;;15.75;;
9310;SDS011;4694;52.464;13.480;2024-03-08T12:50:17;17.60;;;15.77;;
9310;SDS011;4694;52.464;13.480;2024-03-08T12:52:44;19.25;;;14.35;;
9310;SDS011;4694;52.464;13.480;2024-03-08T12:55:11;23.50;;;16.95;;
9310;SDS011;4694;52.464;13.480;2024-03-08T12:57:37;18.55;;;14.05;;
9310;SDS011;4694;52.464;13.480;2024-03-08T13:00:04;26.52;;;14.70;;
9310;SDS011;4694;52.464;13.480;2024-03-08T13:02:37;23.27;;;16.85;;
9310;SDS011;4694;52.464;13.480;2024-03-08T13:05:05;19.35;;;13.93;;
9310;SDS011;4694;52.464;13.480;2024-03-08T13:07:36;18.67;;;14.18;;
9310;SDS011;4694;52.464;13.480;2024-03-08T13:10:03;19.60;;;15.35;;
9310;SDS011;4694;52.464;13.480;2024-03-08T13:12:32;21.52;;;15.40;;
9310;SDS011;4694;52.464;13.480;2024-03-08T13:15:00;19.15;;;14.80;;
9310;SDS011;4694;52.464;13.480;2024-03-08T13:17:26;20.48;;;15.65;;
9310;SDS011;4694;52.464;13.480;2024-03-08T13:19:54;18.55;;;15.35;;
9310;SDS011;4694;52.464;13.480;2024-03-08T13:22:22;17.67;;;14.00;;
9310;SDS011;4694;52.464;13.480;2024-03-08T13:24:51;21.42;;;14.70;;
9310;SDS011;4694;52.464;13.480;2024-03-08T13:27:18;18.52;;;14.48;;
9310;SDS011;4694;52.464;13.480;2024-03-08T13:29:46;16.98;;;13.20;;
9310;SDS011;4694;52.464;13.480;2024-03-08T13:32:14;19.45;;;14.95;;
9310;SDS011;4694;52.464;13.480;2024-03-08T13:34:41;21.42;;;15.43;;
9310;SDS011;4694;52.464;13.480;2024-03-08T13:37:07;17.40;;;13.75;;
9310;SDS011;4694;52.464;13.480;2024-03-08T13:39:35;19.10;;;14.55;;
9310;SDS011;4694;52.464;13.480;2024-03-08T13:42:08;17.65;;;13.20;;
9310;SDS011;4694;52.464;13.480;2024-03-08T13:44:38;14.15;;;12.00;;
9310;SDS011;4694;52.464;13.480;2024-03-08T13:47:05;18.85;;;13.10;;
9310;SDS011;4694;52.464;13.480;2024-03-08T13:49:32;19.67;;;13.23;;
9310;SDS011;4694;52.464;13.480;2024-03-08T13:51:59;17.55;;;13.35;;
9310;SDS011;4694;52.464;13.480;2024-03-08T13:54:26;16.15;;;11.90;;
9310;SDS011;4694;52.464;13.480;2024-03-08T13:56:56;19.48;;;12.45;;
9310;SDS011;4694;52.464;13.480;2024-03-08T13:59:24;17.60;;;13.20;;
9310;SDS011;4694;52.464;13.480;2024-03-08T14:01:54;19.80;;;14.73;;
9310;SDS011;4694;52.464;13.480;2024-03-08T14:04:21;18.50;;;13.18;;
9310;SDS011;4694;52.464;13.480;2024-03-08T14:06:49;14.98;;;12.27;;
9310;SDS011;4694;52.464;13.480;2024-03-08T14:09:16;15.40;;;12.60;;
9310;SDS011;4694;52.464;13.480;2024-03-08T14:11:44;15.90;;;11.63;;
9310;SDS011;4694;52.464;13.480;2024-03-08T14:14:10;16.75;;;12.18;;
9310;SDS011;4694;52.464;13.480;2024-03-08T14:16:39;16.17;;;12.30;;
9310;SDS011;4694;52.464;13.480;2024-03-08T14:19:07;18.63;;;12.48;;
9310;SDS011;4694;52.464;13.480;2024-03-08T14:21:35;17.30;;;12.82;;
9310;SDS011;4694;52.464;13.480;2024-03-08T14:24:04;17.45;;;12.93;;
9310;SDS011;4694;52.464;13.480;2024-03-08T14:26:31;16.58;;;13.10;;
9310;SDS011;4694;52.464;13.480;2024-03-08T14:28:59;20.30;;;14.95;;
9310;SDS011;4694;52.464;13.480;2024-03-08T14:31:26;18.25;;;13.75;;
9310;SDS011;4694;52.464;13.480;2024-03-08T14:33:54;17.50;;;13.45;;
9310;SDS011;4694;52.464;13.480;2024-03-08T14:36:22;15.18;;;12.23;;
9310;SDS011;4694;52.464;13.480;2024-03-08T14:38:50;16.17;;;11.27;;
9310;SDS011;4694;52.464;13.480;2024-03-08T14:41:17;19.35;;;12.27;;
9310;SDS011;4694;52.464;13.480;2024-03-08T14:43:44;20.40;;;13.65;;